createdAt,value
2024-05-09T00:00:40.443Z,10.82
2024-05-09T00:03:31.751Z,10.73
2024-05-09T00:06:22.067Z,10.69
2024-05-09T00:09:12.372Z,10.57
2024-05-09T00:12:02.855Z,10.35
2024-05-09T00:14:53.189Z,10.49
2024-05-09T00:17:46.254Z,10.51
2024-05-09T00:20:39.911Z,10.47
2024-05-09T00:23:31.767Z,10.38
2024-05-09T00:26:22.248Z,10.30
2024-05-09T00:29:12.942Z,10.10
2024-05-09T00:32:03.402Z,10.21
2024-05-09T00:34:56.533Z,10.16
2024-05-09T00:37:46.923Z,10.10
2024-05-09T00:40:41.689Z,10.06
2024-05-09T00:43:33.872Z,9.94
2024-05-09T00:46:24.156Z,9.92
2024-05-09T00:49:15.006Z,9.89
2024-05-09T00:52:09.467Z,9.84
2024-05-09T00:55:00.209Z,9.78
2024-05-09T00:57:50.779Z,9.66
2024-05-09T01:00:41.845Z,9.29
2024-05-09T01:03:32.688Z,9.54
2024-05-09T01:06:23.529Z,9.52
2024-05-09T01:09:16.480Z,9.24
2024-05-09T01:12:07.243Z,9.53
2024-05-09T01:14:57.578Z,9.56
2024-05-09T01:17:48.116Z,9.50
2024-05-09T01:20:42.495Z,9.47
2024-05-09T01:23:37.741Z,9.37
2024-05-09T01:26:28.186Z,9.32
2024-05-09T01:29:18.649Z,9.27
2024-05-09T01:32:09.395Z,9.21
2024-05-09T01:34:59.871Z,9.14
2024-05-09T01:37:50.215Z,9.02
2024-05-09T01:40:43.490Z,8.99
2024-05-09T01:43:33.816Z,8.92
2024-05-09T01:46:24.107Z,8.99
2024-05-09T01:49:14.555Z,8.90
2024-05-09T01:52:04.904Z,8.87
2024-05-09T01:54:55.195Z,8.88
2024-05-09T01:57:48.197Z,8.71
2024-05-09T02:00:42.203Z,8.78
2024-05-09T02:03:33.724Z,8.77
2024-05-09T02:06:24.110Z,8.79
2024-05-09T02:09:14.368Z,8.83
2024-05-09T02:12:04.731Z,8.87
2024-05-09T02:14:58.330Z,8.73
2024-05-09T02:17:48.910Z,8.94
2024-05-09T02:20:42.283Z,8.97
2024-05-09T02:23:33.351Z,8.98
2024-05-09T02:26:23.795Z,9.04
2024-05-09T02:29:14.330Z,9.05
2024-05-09T02:32:07.915Z,9.04
2024-05-09T02:34:58.298Z,9.03
2024-05-09T02:37:46.068Z,8.34
2024-05-09T02:40:38.768Z,8.90
2024-05-09T02:43:27.618Z,8.89
2024-05-09T02:46:17.933Z,8.87
2024-05-09T02:49:08.453Z,8.84
2024-05-09T02:51:58.860Z,8.85
2024-05-09T02:54:46.587Z,8.83
2024-05-09T02:57:36.878Z,8.83
2024-05-09T03:00:34.186Z,8.89
2024-05-09T03:03:29.264Z,8.89
2024-05-09T03:06:19.693Z,8.86
2024-05-09T03:09:10.025Z,8.88
2024-05-09T03:11:57.796Z,8.85
2024-05-09T03:14:48.136Z,8.48
2024-05-09T03:17:36.130Z,8.77
2024-05-09T03:20:32.599Z,8.73
2024-05-09T03:23:27.766Z,8.70
2024-05-09T03:26:16.899Z,8.71
2024-05-09T03:29:07.240Z,8.70
2024-05-09T03:31:55.620Z,8.71
2024-05-09T03:34:46.028Z,8.63
2024-05-09T03:37:36.365Z,8.65
2024-05-09T03:40:31.032Z,8.68
2024-05-09T03:43:22.397Z,8.60
2024-05-09T03:46:12.715Z,8.62
2024-05-09T03:49:00.478Z,8.55
2024-05-09T03:51:50.842Z,8.54
2024-05-09T03:54:45.877Z,8.24
2024-05-09T03:57:38.813Z,8.56
2024-05-09T04:00:34.999Z,8.53
2024-05-09T04:03:29.067Z,7.66
2024-05-09T04:06:21.375Z,8.43
2024-05-09T04:09:11.692Z,8.41
2024-05-09T04:11:59.549Z,8.16
2024-05-09T04:14:52.488Z,8.46
2024-05-09T04:17:40.350Z,8.51
2024-05-09T04:20:38.096Z,8.58
2024-05-09T04:23:28.109Z,8.59
2024-05-09T04:26:18.490Z,8.56
2024-05-09T04:29:06.284Z,8.63
2024-05-09T04:31:59.330Z,8.62
2024-05-09T04:34:49.739Z,8.59
2024-05-09T04:37:37.601Z,8.61
2024-05-09T04:40:33.331Z,8.47
2024-05-09T04:43:26.224Z,8.64
2024-05-09T04:46:15.442Z,8.65
2024-05-09T04:49:08.735Z,8.66
2024-05-09T04:51:56.540Z,8.60
2024-05-09T04:54:46.839Z,8.67
2024-05-09T04:57:34.564Z,8.79
2024-05-09T05:00:32.055Z,8.83
2024-05-09T05:03:24.402Z,8.98
2024-05-09T05:06:17.523Z,9.10
2024-05-09T05:09:05.246Z,9.11
2024-05-09T05:11:55.780Z,9.20
2024-05-09T05:14:43.527Z,9.20
2024-05-09T05:17:34.302Z,9.26
2024-05-09T05:20:30.600Z,9.34
2024-05-09T05:23:26.687Z,9.43
2024-05-09T05:26:20.114Z,9.42
2024-05-09T05:29:10.488Z,9.60
2024-05-09T05:31:58.416Z,9.77
2024-05-09T05:34:48.809Z,9.88
2024-05-09T05:37:36.505Z,10.00
2024-05-09T05:40:36.184Z,10.05
2024-05-09T05:43:29.545Z,10.15
2024-05-09T05:46:17.272Z,10.15
2024-05-09T05:49:07.711Z,10.42
2024-05-09T05:51:55.422Z,10.46
2024-05-09T05:54:48.312Z,10.70
2024-05-09T05:57:38.702Z,10.78
2024-05-09T06:00:35.127Z,10.92
2024-05-09T06:03:29.448Z,11.05
2024-05-09T06:06:17.375Z,11.16
2024-05-09T06:09:07.726Z,11.30
2024-05-09T06:11:55.510Z,11.28
2024-05-09T06:14:48.470Z,11.53
2024-05-09T06:17:36.254Z,11.70
2024-05-09T06:20:34.838Z,11.88
2024-05-09T06:23:27.629Z,12.10
2024-05-09T06:26:18.277Z,12.31
2024-05-09T06:29:06.094Z,12.51
2024-05-09T06:32:00.360Z,12.78
2024-05-09T06:34:48.461Z,13.02
2024-05-09T06:37:40.407Z,13.21
2024-05-09T06:40:36.467Z,13.42
2024-05-09T06:43:29.302Z,13.42
2024-05-09T06:46:17.015Z,13.37
2024-05-09T06:49:11.594Z,13.66
2024-05-09T06:51:59.486Z,13.84
2024-05-09T06:54:49.772Z,13.79
2024-05-09T06:57:39.089Z,14.29
2024-05-09T07:00:37.718Z,14.41
2024-05-09T07:03:28.063Z,14.85
2024-05-09T07:06:21.057Z,15.03
2024-05-09T07:09:08.782Z,15.12
2024-05-09T07:11:59.145Z,15.30
2024-05-09T07:14:46.938Z,15.62
2024-05-09T07:17:37.453Z,15.81
2024-05-09T07:20:33.736Z,16.07
2024-05-09T07:23:27.980Z,16.09
2024-05-09T07:26:15.998Z,16.24
2024-05-09T07:29:06.464Z,16.48
2024-05-09T07:31:54.300Z,16.73
2024-05-09T07:34:46.086Z,16.91
2024-05-09T07:37:33.827Z,16.77
2024-05-09T07:40:34.800Z,16.76
2024-05-09T07:43:24.449Z,16.98
2024-05-09T07:53:22.046Z,16.83
2024-05-09T07:55:09.778Z,16.94
2024-05-09T07:58:00.321Z,17.14
2024-05-09T08:00:50.700Z,17.36
2024-05-09T08:03:41.703Z,17.82
2024-05-09T08:06:32.364Z,18.22
2024-05-09T08:09:22.675Z,18.35
2024-05-09T08:12:13.264Z,18.68
2024-05-09T08:15:06.294Z,18.66
2024-05-09T08:17:54.083Z,19.10
2024-05-09T08:20:45.859Z,18.99
2024-05-09T08:23:33.817Z,18.88
2024-05-09T08:26:24.207Z,19.15
2024-05-09T08:29:12.799Z,19.23
2024-05-09T08:32:06.023Z,19.30
2024-05-09T08:34:53.759Z,19.48
2024-05-09T08:37:44.825Z,19.56
2024-05-09T08:40:37.204Z,19.51
2024-05-09T08:43:29.990Z,19.37
2024-05-09T08:46:18.880Z,19.54
2024-05-09T08:49:12.261Z,19.41
2024-05-09T08:52:00.149Z,19.39
2024-05-09T08:54:50.541Z,19.26
2024-05-09T08:57:41.041Z,19.19
2024-05-09T09:00:36.226Z,19.37
2024-05-09T09:03:30.093Z,19.69
2024-05-09T09:06:22.317Z,19.71
2024-05-09T09:09:13.439Z,19.73
2024-05-09T09:12:01.239Z,19.58
2024-05-09T09:14:51.637Z,19.44
2024-05-09T09:17:42.012Z,19.70
2024-05-09T09:20:36.415Z,19.69
2024-05-09T09:23:30.816Z,19.55
2024-05-09T09:26:18.865Z,19.84
2024-05-09T09:29:09.232Z,19.73
2024-05-09T09:31:59.910Z,19.63
2024-05-09T09:34:51.124Z,19.72
2024-05-09T09:37:38.888Z,19.82
2024-05-09T09:40:34.933Z,19.85
2024-05-09T09:43:26.116Z,20.10
2024-05-09T09:46:17.047Z,18.02
2024-05-09T09:49:05.014Z,20.03
2024-05-09T09:51:55.826Z,19.76
2024-05-09T09:54:47.426Z,19.79
2024-05-09T09:57:38.299Z,19.78
2024-05-09T10:00:33.203Z,20.07
2024-05-09T10:03:24.501Z,20.14
2024-05-09T10:06:12.665Z,20.48
2024-05-09T10:09:03.262Z,20.13
2024-05-09T10:11:58.021Z,20.21
2024-05-09T10:14:54.902Z,20.13
2024-05-09T10:17:51.133Z,20.36
2024-05-09T10:20:45.442Z,20.04
2024-05-09T10:23:34.487Z,20.71
2024-05-09T10:26:34.474Z,20.20
2024-05-09T10:29:26.397Z,20.28
2024-05-09T10:32:16.968Z,20.13
2024-05-09T10:35:11.695Z,20.06
2024-05-09T10:38:06.294Z,20.19
2024-05-09T10:40:59.827Z,20.58
2024-05-09T10:43:48.013Z,21.09
2024-05-09T10:46:38.611Z,20.55
2024-05-09T10:49:29.030Z,20.56
2024-05-09T10:52:23.419Z,20.39
2024-05-09T10:55:11.275Z,21.02
2024-05-09T10:58:01.634Z,21.04
2024-05-09T11:00:50.016Z,20.91
2024-05-09T11:03:40.833Z,21.08
2024-05-09T11:06:36.039Z,20.94
2024-05-09T11:09:24.143Z,20.89
2024-05-09T11:12:14.898Z,21.16
2024-05-09T11:15:05.777Z,21.10
2024-05-09T11:17:53.797Z,21.03
2024-05-09T11:20:44.567Z,21.27
2024-05-09T11:23:34.978Z,21.57
2024-05-09T11:26:28.084Z,21.40
2024-05-09T11:29:18.670Z,21.11
2024-05-09T11:32:11.658Z,21.09
2024-05-09T11:35:02.477Z,21.51
2024-05-09T11:37:50.190Z,21.18
2024-05-09T11:40:43.306Z,21.37
2024-05-09T11:43:31.410Z,20.94
2024-05-09T11:46:21.891Z,21.01
2024-05-09T11:49:10.074Z,20.92
2024-05-09T11:52:00.704Z,21.46
2024-05-09T11:54:48.528Z,21.21
2024-05-09T11:57:41.700Z,20.54
2024-05-09T12:00:36.497Z,20.74
2024-05-09T12:03:28.168Z,21.00
2024-05-09T12:06:16.028Z,21.38
2024-05-09T12:09:06.375Z,21.32
2024-05-09T12:11:56.693Z,21.76
2024-05-09T12:14:47.065Z,21.91
2024-05-09T12:17:37.502Z,22.20
2024-05-09T12:20:32.834Z,22.31
2024-05-09T12:23:27.365Z,21.94
2024-05-09T12:26:15.868Z,22.30
2024-05-09T12:29:06.200Z,22.20
2024-05-09T12:31:56.561Z,22.21
2024-05-09T12:34:46.967Z,22.19
2024-05-09T12:37:34.728Z,22.34
2024-05-09T12:40:34.272Z,22.60
2024-05-09T12:43:25.200Z,22.39
2024-05-09T12:46:15.733Z,22.53
2024-05-09T12:49:06.211Z,22.16
2024-05-09T12:51:56.694Z,22.32
2024-05-09T12:54:44.462Z,22.18
2024-05-09T12:57:35.006Z,22.15
2024-05-09T13:00:28.210Z,22.14
2024-05-09T13:03:24.244Z,22.24
2024-05-09T13:06:14.651Z,22.21
2024-05-09T13:09:05.010Z,22.42
2024-05-09T13:11:52.894Z,22.13
2024-05-09T13:14:43.199Z,21.73
2024-05-09T13:17:30.995Z,21.51
2024-05-09T13:20:29.231Z,21.82
2024-05-09T13:23:25.957Z,22.14
2024-05-09T13:26:16.281Z,22.10
2024-05-09T13:29:03.993Z,22.07
2024-05-09T13:31:54.314Z,22.36
2024-05-09T13:34:43.074Z,22.37
2024-05-09T13:37:33.553Z,22.37
2024-05-09T13:40:32.136Z,22.28
2024-05-09T13:43:25.490Z,22.43
2024-05-09T13:46:13.334Z,22.56
2024-05-09T13:49:03.738Z,22.16
2024-05-09T13:51:54.223Z,22.12
2024-05-09T13:54:42.054Z,22.06
2024-05-09T13:57:34.986Z,22.31
2024-05-09T14:00:32.336Z,22.31
2024-05-09T14:03:33.098Z,22.25
2024-05-09T14:06:21.225Z,22.53
2024-05-09T14:09:12.276Z,22.68
2024-05-09T14:12:00.049Z,22.50
2024-05-09T14:14:52.931Z,21.41
2024-05-09T14:17:40.803Z,22.30
2024-05-09T14:20:32.474Z,22.40
2024-05-09T14:26:10.394Z,22.15
2024-05-09T14:28:58.104Z,22.01
2024-05-09T14:31:50.993Z,22.13
2024-05-09T14:34:38.792Z,22.16
2024-05-09T14:37:29.139Z,22.23
2024-05-09T14:40:30.599Z,21.88
2024-05-09T14:43:27.344Z,22.28
2024-05-09T14:46:15.269Z,21.88
2024-05-09T14:49:11.648Z,22.22
2024-05-09T14:51:59.957Z,22.22
2024-05-09T14:54:59.845Z,22.12
2024-05-09T14:57:48.538Z,21.97
2024-05-09T15:00:44.634Z,21.83
2024-05-09T15:03:36.157Z,21.73
2024-05-09T15:06:29.218Z,21.81
2024-05-09T15:09:16.935Z,21.67
2024-05-09T15:12:09.301Z,21.70
2024-05-09T15:14:57.781Z,21.36
2024-05-09T15:17:48.260Z,21.77
2024-05-09T15:23:33.112Z,21.78
2024-05-09T15:26:20.923Z,21.76
2024-05-09T15:29:11.251Z,21.86
2024-05-09T15:31:58.999Z,21.72
2024-05-09T15:34:49.364Z,21.84
2024-05-09T15:37:39.967Z,21.74
2024-05-09T15:40:37.635Z,21.74
2024-05-09T15:43:30.800Z,21.66
2024-05-09T15:46:18.827Z,21.65
2024-05-09T15:49:09.322Z,21.69
2024-05-09T15:51:57.180Z,21.66
2024-05-09T15:54:47.536Z,21.66
2024-05-09T15:57:37.991Z,21.54
2024-05-09T16:00:36.507Z,21.46
2024-05-09T16:03:28.379Z,21.08
2024-05-09T16:06:18.939Z,21.11
2024-05-09T16:09:06.688Z,21.36
2024-05-09T16:11:57.122Z,21.24
2024-05-09T16:14:50.710Z,21.35
2024-05-09T16:17:38.566Z,21.36
2024-05-09T16:20:37.350Z,21.25
2024-05-09T16:23:31.213Z,21.15
2024-05-09T16:26:18.938Z,21.20
2024-05-09T16:29:09.203Z,21.06
2024-05-09T16:31:59.597Z,21.19
2024-05-09T16:34:50.009Z,21.15
2024-05-09T16:37:38.060Z,20.94
2024-05-09T16:40:36.295Z,21.02
2024-05-09T16:43:30.062Z,20.99
2024-05-09T16:46:17.784Z,21.00
2024-05-09T16:49:10.983Z,21.02
2024-05-09T16:51:58.813Z,20.99
2024-05-09T16:54:49.163Z,20.95
2024-05-09T16:57:36.962Z,20.86
2024-05-09T17:00:38.131Z,20.93
2024-05-09T17:03:30.009Z,20.84
2024-05-09T17:06:22.959Z,20.81
2024-05-09T17:09:12.044Z,20.82
2024-05-09T17:12:05.788Z,20.84
2024-05-09T17:14:56.091Z,20.70
2024-05-09T17:17:46.493Z,20.69
2024-05-09T17:20:36.859Z,20.21
2024-05-09T17:23:32.627Z,20.67
2024-05-09T17:26:25.187Z,20.58
2024-05-09T17:29:13.065Z,20.50
2024-05-09T17:32:03.375Z,20.48
2024-05-09T17:34:51.146Z,20.46
2024-05-09T17:37:41.528Z,20.38
2024-05-09T17:40:35.745Z,20.41
2024-05-09T17:43:28.796Z,20.33
2024-05-09T17:46:16.606Z,20.25
2024-05-09T17:49:07.097Z,20.22
2024-05-09T17:51:55.473Z,20.15
2024-05-09T17:54:46.114Z,20.14
2024-05-09T17:57:36.781Z,20.15
2024-05-09T18:00:36.571Z,20.05
2024-05-09T18:03:28.009Z,19.84
2024-05-09T18:06:18.801Z,19.82
2024-05-09T18:09:06.467Z,19.72
2024-05-09T18:11:56.791Z,19.64
2024-05-09T18:14:47.112Z,19.47
2024-05-09T18:17:37.653Z,19.50
2024-05-09T18:20:36.080Z,19.45
2024-05-09T18:23:32.524Z,19.32
2024-05-09T18:26:20.328Z,19.29
2024-05-09T18:29:11.059Z,19.19
2024-05-09T18:32:01.760Z,19.09
2024-05-09T18:34:52.229Z,18.94
2024-05-09T18:37:40.038Z,18.86
2024-05-09T18:40:34.636Z,18.77
2024-05-09T18:43:31.033Z,18.64
2024-05-09T18:46:29.371Z,18.52
2024-05-09T18:49:19.862Z,18.38
2024-05-09T18:52:10.650Z,18.26
2024-05-09T18:54:58.647Z,18.06
2024-05-09T18:57:49.119Z,17.94
2024-05-09T19:00:39.661Z,17.69
2024-05-09T19:03:32.442Z,17.58
2024-05-09T19:06:24.716Z,17.48
2024-05-09T19:09:15.362Z,17.21
2024-05-09T19:12:03.285Z,17.36
2024-05-09T19:14:53.673Z,17.21
2024-05-09T19:17:41.532Z,17.18
2024-05-09T19:20:34.784Z,17.08
2024-05-09T19:23:26.747Z,16.96
2024-05-09T19:26:18.438Z,16.84
2024-05-09T19:29:06.273Z,16.72
2024-05-09T19:31:56.697Z,16.61
2024-05-09T19:34:44.425Z,16.52
2024-05-09T19:37:34.783Z,16.39
2024-05-09T19:40:31.247Z,16.25
2024-05-09T19:43:23.669Z,16.13
2024-05-09T19:46:11.850Z,16.03
2024-05-09T19:49:03.172Z,15.96
2024-05-09T19:51:51.092Z,15.83
2024-05-09T19:54:41.749Z,15.73
2024-05-09T19:57:32.179Z,15.54
2024-05-09T20:00:29.439Z,15.52
2024-05-09T20:03:23.319Z,15.35
2024-05-09T20:06:13.827Z,15.23
2024-05-09T20:09:01.576Z,15.14
2024-05-09T20:11:51.901Z,15.04
2024-05-09T20:14:42.279Z,14.97
2024-05-09T20:17:32.687Z,14.96
2024-05-09T20:20:28.571Z,14.91
2024-05-09T20:23:27.130Z,14.78
2024-05-09T20:26:14.909Z,14.75
2024-05-09T20:29:05.323Z,14.61
2024-05-09T20:31:55.640Z,14.54
2024-05-09T20:34:50.326Z,14.43
2024-05-09T20:37:38.054Z,14.29
2024-05-09T20:40:32.913Z,14.26
2024-05-09T20:43:24.518Z,14.18
2024-05-09T20:46:17.876Z,13.86
2024-05-09T20:49:08.411Z,14.02
2024-05-09T20:51:58.794Z,13.62
2024-05-09T20:54:46.553Z,13.81
2024-05-09T20:57:36.916Z,13.57
2024-05-09T21:00:35.202Z,13.61
2024-05-09T21:03:27.649Z,13.41
2024-05-09T21:06:20.652Z,13.49
2024-05-09T21:09:08.354Z,13.17
2024-05-09T21:11:58.723Z,13.37
2024-05-09T21:14:46.471Z,13.40
2024-05-09T21:17:37.269Z,13.24
2024-05-09T21:20:30.969Z,13.39
2024-05-09T21:23:25.351Z,13.32
2024-05-09T21:26:17.265Z,13.33
2024-05-09T21:29:05.002Z,13.27
2024-05-09T21:31:55.306Z,13.23
2024-05-09T21:34:45.713Z,13.07
2024-05-09T21:37:33.440Z,13.07
2024-05-09T21:40:33.464Z,13.09
2024-05-09T21:43:23.246Z,13.10
2024-05-09T21:46:13.635Z,13.09
2024-05-09T21:49:04.033Z,13.17
2024-05-09T21:51:51.834Z,13.18
2024-05-09T21:54:42.177Z,13.08
2024-05-09T21:57:32.530Z,13.07
2024-05-09T22:00:29.203Z,12.95
2024-05-09T22:03:26.407Z,12.88
2024-05-09T22:06:14.301Z,12.87
2024-05-09T22:09:05.654Z,12.64
2024-05-09T22:11:54.496Z,12.80
2024-05-09T22:14:47.460Z,12.76
2024-05-09T22:17:35.373Z,12.72
2024-05-09T22:20:33.880Z,12.72
2024-05-09T22:23:25.352Z,12.54
2024-05-09T22:26:15.663Z,12.49
2024-05-09T22:29:03.416Z,12.40
2024-05-09T22:31:56.287Z,12.28
2024-05-09T22:34:44.542Z,12.42
2024-05-09T22:37:34.887Z,12.30
2024-05-09T22:40:32.163Z,12.36
2024-05-09T22:43:29.341Z,12.30
2024-05-09T22:46:17.192Z,12.24
2024-05-09T22:49:10.289Z,12.23
2024-05-09T22:51:58.148Z,12.18
2024-05-09T22:54:48.579Z,11.03
2024-05-09T22:57:36.378Z,12.10
2024-05-09T23:00:31.591Z,12.08
2024-05-09T23:03:23.373Z,12.01
2024-05-09T23:06:16.530Z,11.86
2024-05-09T23:09:04.283Z,11.88
2024-05-09T23:11:55.038Z,11.91
2024-05-09T23:14:42.789Z,11.83
2024-05-09T23:17:33.135Z,11.84
2024-05-09T23:20:30.034Z,11.78
2024-05-09T23:23:29.763Z,11.64
2024-05-09T23:26:17.480Z,11.60
2024-05-09T23:29:07.800Z,11.65
2024-05-09T23:31:55.546Z,11.50
2024-05-09T23:34:45.944Z,11.46
2024-05-09T23:37:33.671Z,11.42
2024-05-09T23:40:35.063Z,11.47
2024-05-09T23:43:26.893Z,11.42
2024-05-09T23:46:17.413Z,11.34
2024-05-09T23:49:05.794Z,11.35
2024-05-09T23:51:56.182Z,11.34
2024-05-09T23:54:43.911Z,11.30
2024-05-09T23:57:36.921Z,10.86
